createdAt,value
2023-05-09T00:00:47.886Z,101141.63
2023-05-09T00:03:34.178Z,101144.22
2023-05-09T00:06:19.221Z,101129.50
2023-05-09T00:09:04.976Z,101126.00
2023-05-09T00:11:50.219Z,101137.13
2023-05-09T00:14:35.609Z,101124.25
2023-05-09T00:17:21.146Z,101111.31
2023-05-09T00:20:09.335Z,101113.81
2023-05-09T00:22:54.892Z,101104.25
2023-05-09T00:25:39.796Z,101107.75
2023-05-09T00:28:25.161Z,101095.63
2023-05-09T00:31:10.059Z,101085.16
2023-05-09T00:33:54.883Z,101087.78
2023-05-09T00:36:40.174Z,101092.84
2023-05-09T00:39:25.339Z,101091.06
2023-05-09T00:42:10.506Z,101074.56
2023-05-09T00:44:55.862Z,101073.72
2023-05-09T00:47:41.398Z,101076.25
2023-05-09T00:50:26.626Z,101069.34
2023-05-09T00:53:12.480Z,101065.78
2023-05-09T00:55:58.104Z,101067.63
2023-05-09T00:58:43.971Z,101055.44
2023-05-09T01:01:29.264Z,101053.63
2023-05-09T01:04:15.267Z,101048.34
2023-05-09T01:07:16.754Z,101032.72
2023-05-09T01:10:08.469Z,101020.66
2023-05-09T01:13:19.159Z,101006.81
2023-05-09T01:16:16.430Z,100994.53
2023-05-09T01:19:36.502Z,100998.84
2023-05-09T01:22:29.896Z,100988.44
2023-05-09T01:25:20.831Z,100982.34
2023-05-09T01:28:05.649Z,100990.06
2023-05-09T01:30:53.313Z,100972.75
2023-05-09T01:33:42.471Z,100973.66
2023-05-09T01:36:31.901Z,100968.47
2023-05-09T01:39:19.192Z,100960.59
2023-05-09T01:42:08.439Z,100969.22
2023-05-09T01:44:54.656Z,100966.59
2023-05-09T01:47:41.657Z,100974.34
2023-05-09T01:50:29.557Z,100981.28
2023-05-09T01:53:17.231Z,100981.25
2023-05-09T01:56:04.274Z,100981.19
2023-05-09T01:58:51.702Z,100975.94
2023-05-09T02:01:37.535Z,100986.22
2023-05-09T02:04:23.861Z,100989.69
2023-05-09T02:07:10.715Z,100992.28
2023-05-09T02:09:57.405Z,100985.34
2023-05-09T02:12:42.403Z,100991.44
2023-05-09T02:15:29.473Z,100986.31
2023-05-09T02:18:14.585Z,100984.47
2023-05-09T02:21:00.362Z,100974.03
2023-05-09T02:23:45.493Z,100970.50
2023-05-09T02:26:31.028Z,100960.97
2023-05-09T02:29:20.383Z,100960.97
2023-05-09T02:32:12.227Z,100947.00
2023-05-09T02:34:58.932Z,100943.66
2023-05-09T02:37:45.643Z,100937.34
2023-05-09T02:40:31.085Z,100942.72
2023-05-09T02:43:16.764Z,100939.16
2023-05-09T02:46:02.010Z,100952.13
2023-05-09T02:48:47.505Z,100955.47
2023-05-09T02:51:32.815Z,100966.63
2023-05-09T02:54:18.164Z,100973.63
2023-05-09T02:57:03.956Z,100967.53
2023-05-09T02:59:49.006Z,100958.81
2023-05-09T03:02:34.520Z,100959.75
2023-05-09T03:05:19.874Z,100950.06
2023-05-09T03:08:05.575Z,100949.28
2023-05-09T03:10:50.822Z,100926.00
2023-05-09T03:13:36.076Z,100919.81
2023-05-09T03:16:21.100Z,100929.34
2023-05-09T03:19:06.293Z,100926.75
2023-05-09T03:21:51.182Z,100923.31
2023-05-09T03:24:36.007Z,100937.16
2023-05-09T03:27:21.402Z,100927.66
2023-05-09T03:30:06.992Z,100923.28
2023-05-09T03:32:52.151Z,100908.56
2023-05-09T03:35:37.485Z,100914.63
2023-05-09T03:38:22.910Z,100912.75
2023-05-09T03:41:08.237Z,100922.28
2023-05-09T03:43:53.543Z,100924.03
2023-05-09T03:46:38.631Z,100923.97
2023-05-09T03:49:24.110Z,100940.34
2023-05-09T03:52:09.443Z,100918.91
2023-05-09T03:54:54.898Z,100927.44
2023-05-09T03:57:40.281Z,100929.13
2023-05-09T04:00:25.175Z,100916.25
2023-05-09T04:03:10.921Z,100920.59
2023-05-09T04:05:56.404Z,100920.56
2023-05-09T04:08:42.069Z,100924.91
2023-05-09T04:11:27.151Z,100929.25
2023-05-09T04:14:12.650Z,100930.97
2023-05-09T04:16:57.684Z,100923.34
2023-05-09T04:19:42.956Z,100927.78
2023-05-09T04:22:28.489Z,100929.47
2023-05-09T04:25:13.999Z,100918.19
2023-05-09T04:27:59.213Z,100926.91
2023-05-09T04:30:44.475Z,100918.28
2023-05-09T04:33:29.821Z,100922.59
2023-05-09T04:36:14.720Z,100918.22
2023-05-09T04:39:00.171Z,100928.66
2023-05-09T04:41:45.847Z,100921.06
2023-05-09T04:44:31.074Z,100936.53
2023-05-09T04:47:16.320Z,100939.19
2023-05-09T04:50:01.186Z,100947.97
2023-05-09T04:52:46.074Z,100938.50
2023-05-09T04:55:31.512Z,100941.13
2023-05-09T04:58:16.922Z,100940.28
2023-05-09T05:01:01.844Z,100926.47
2023-05-09T05:03:47.130Z,100927.41
2023-05-09T05:06:32.197Z,100919.66
2023-05-09T05:09:17.609Z,100917.84
2023-05-09T05:12:04.234Z,100916.28
2023-05-09T05:14:50.736Z,100918.00
2023-05-09T05:17:36.315Z,100912.06
2023-05-09T05:20:21.528Z,100913.03
2023-05-09T05:23:06.938Z,100907.94
2023-05-09T05:25:52.072Z,100895.81
2023-05-09T05:28:37.673Z,100893.22
2023-05-09T05:31:22.970Z,100895.84
2023-05-09T05:34:08.654Z,100884.66
2023-05-09T05:36:53.953Z,100872.56
2023-05-09T05:39:39.539Z,100874.31
2023-05-09T05:42:24.792Z,100873.47
2023-05-09T05:45:10.529Z,100864.81
2023-05-09T05:47:55.368Z,100860.47
2023-05-09T05:50:40.698Z,100857.88
2023-05-09T05:53:25.970Z,100861.34
2023-05-09T05:56:11.313Z,100857.00
2023-05-09T05:58:56.841Z,100860.50
2023-05-09T06:01:43.695Z,100857.88
2023-05-09T06:04:31.685Z,100857.00
2023-05-09T06:07:18.713Z,100845.72
2023-05-09T06:10:04.211Z,100840.50
2023-05-09T06:12:49.105Z,100843.09
2023-05-09T06:15:34.614Z,100844.84
2023-05-09T06:18:19.964Z,100837.91
2023-05-09T06:21:05.579Z,100843.13
2023-05-09T06:24:01.986Z,100841.34
2023-05-09T06:26:53.068Z,100833.53
2023-05-09T06:29:38.612Z,100838.72
2023-05-09T06:32:23.829Z,100835.25
2023-05-09T06:35:09.416Z,100819.59
2023-05-09T06:37:54.702Z,100816.06
2023-05-09T06:40:39.988Z,100815.03
2023-05-09T06:43:25.418Z,100797.75
2023-05-09T06:46:11.248Z,100808.94
2023-05-09T06:48:56.615Z,100797.53
2023-05-09T06:51:42.097Z,100787.81
2023-05-09T06:54:27.400Z,100776.50
2023-05-09T06:57:12.951Z,100775.63
2023-05-09T06:59:58.385Z,100764.22
2023-05-09T07:02:43.856Z,100769.44
2023-05-09T07:05:29.289Z,100758.06
2023-05-09T07:08:14.740Z,100759.91
2023-05-09T07:11:00.198Z,100762.53
2023-05-09T07:13:45.436Z,100763.28
2023-05-09T07:16:31.057Z,100757.81
2023-05-09T07:19:16.406Z,100756.13
2023-05-09T07:22:01.605Z,100747.19
2023-05-09T07:24:46.496Z,100734.00
2023-05-09T07:27:31.837Z,100720.72
2023-05-09T07:30:17.579Z,100708.88
2023-05-09T07:33:03.408Z,100717.81
2023-05-09T07:35:49.086Z,100718.75
2023-05-09T07:38:34.241Z,100724.91
2023-05-09T07:41:19.829Z,100731.81
2023-05-09T07:44:05.159Z,100732.63
2023-05-09T07:46:50.299Z,100729.22
2023-05-09T07:49:35.726Z,100712.81
2023-05-09T07:52:20.668Z,100730.94
2023-05-09T07:55:06.141Z,100717.78
2023-05-09T07:57:51.306Z,100712.47
2023-05-09T08:00:36.767Z,100703.84
2023-05-09T08:03:22.325Z,100697.81
2023-05-09T08:06:07.734Z,100678.66
2023-05-09T08:08:52.820Z,100691.59
2023-05-09T08:11:38.414Z,100681.06
2023-05-09T08:14:23.907Z,100671.13
2023-05-09T08:17:09.353Z,100647.59
2023-05-09T08:19:54.611Z,100637.34
2023-05-09T08:22:40.431Z,100640.00
2023-05-09T08:25:25.677Z,100646.19
2023-05-09T08:28:11.047Z,100644.56
2023-05-09T08:30:56.488Z,100648.00
2023-05-09T08:33:42.121Z,100643.81
2023-05-09T08:36:27.305Z,100651.53
2023-05-09T08:39:12.752Z,100653.16
2023-05-09T08:41:59.957Z,100648.78
2023-05-09T08:44:45.445Z,100637.34
2023-05-09T08:47:30.439Z,100649.31
2023-05-09T08:50:16.976Z,100646.31
2023-05-09T08:53:02.875Z,100611.63
2023-05-09T08:55:51.648Z,100606.44
2023-05-09T08:58:37.215Z,100611.50
2023-05-09T09:01:22.525Z,100612.25
2023-05-09T09:04:08.449Z,100610.91
2023-05-09T09:06:54.183Z,100604.59
2023-05-09T09:09:44.771Z,100586.88
2023-05-09T09:12:31.075Z,100588.44
2023-05-09T09:15:19.885Z,100587.16
2023-05-09T09:18:07.992Z,100550.06
2023-05-09T09:20:57.796Z,100547.09
2023-05-09T09:23:45.373Z,100514.03
2023-05-09T09:26:30.570Z,100523.56
2023-05-09T09:29:17.813Z,100504.47
2023-05-09T09:32:05.839Z,100536.16
2023-05-09T09:34:50.895Z,100542.53
2023-05-09T09:37:37.498Z,100518.94
2023-05-09T09:40:24.258Z,100508.16
2023-05-09T09:43:09.613Z,100501.00
2023-05-09T09:45:55.232Z,100510.22
2023-05-09T09:48:40.093Z,100508.84
2023-05-09T09:51:27.372Z,100500.66
2023-05-09T09:54:12.940Z,100502.22
2023-05-09T09:56:58.316Z,100506.53
2023-05-09T09:59:58.166Z,100513.44
2023-05-09T10:02:56.933Z,100517.09
2023-05-09T10:05:42.431Z,100524.09
2023-05-09T10:08:27.447Z,100503.91
2023-05-09T10:11:13.601Z,100518.22
2023-05-09T10:13:58.634Z,100495.94
2023-05-09T10:16:44.846Z,100469.91
2023-05-09T10:19:30.746Z,100483.81
2023-05-09T10:22:18.054Z,100479.19
2023-05-09T10:25:05.713Z,100461.84
2023-05-09T10:27:55.748Z,100434.84
2023-05-09T10:31:01.040Z,100466.16
2023-05-09T10:33:48.387Z,100445.47
2023-05-09T10:36:33.548Z,100422.44
2023-05-09T10:39:19.291Z,100371.44
2023-05-09T10:42:05.353Z,100354.59
2023-05-09T10:44:52.346Z,100352.78
2023-05-09T10:47:42.198Z,100356.75
2023-05-09T10:50:27.635Z,100357.50
2023-05-09T10:53:13.042Z,100356.56
2023-05-09T10:55:58.484Z,100372.38
2023-05-09T10:58:47.831Z,100372.59
2023-05-09T11:01:33.925Z,100347.88
2023-05-09T11:04:18.999Z,100341.72
2023-05-09T11:07:22.282Z,100336.13
2023-05-09T11:10:18.297Z,100305.94
2023-05-09T11:13:03.241Z,100292.34
2023-05-09T11:16:01.073Z,100293.00
2023-05-09T11:18:51.642Z,100298.94
2023-05-09T11:21:37.039Z,100316.78
2023-05-09T11:24:22.629Z,100310.97
2023-05-09T11:27:26.264Z,100301.63
2023-05-09T11:30:13.442Z,100308.41
2023-05-09T11:32:59.156Z,100313.31
2023-05-09T11:35:44.557Z,100305.72
2023-05-09T11:38:41.277Z,100308.84
2023-05-09T11:41:27.192Z,100311.63
2023-05-09T11:44:16.968Z,100328.13
2023-05-09T11:47:02.321Z,100336.75
2023-05-09T11:49:50.437Z,100330.59
2023-05-09T11:52:36.597Z,100326.00
2023-05-09T11:55:28.025Z,100325.66
2023-05-09T11:58:13.442Z,100293.75
2023-05-09T12:00:59.026Z,100270.31
2023-05-09T12:03:45.278Z,100233.69
2023-05-09T12:06:30.908Z,100234.94
2023-05-09T12:09:16.255Z,100219.56
2023-05-09T12:12:01.514Z,100213.59
2023-05-09T12:14:48.383Z,100204.81
2023-05-09T12:17:35.221Z,100199.84
2023-05-09T12:20:20.741Z,100204.03
2023-05-09T12:23:06.806Z,100199.94
2023-05-09T12:25:56.726Z,100166.22
2023-05-09T12:28:42.527Z,100170.09
2023-05-09T12:31:28.209Z,100177.94
2023-05-09T12:34:13.493Z,100152.63
2023-05-09T12:36:58.787Z,100151.22
2023-05-09T12:40:06.130Z,100134.31
2023-05-09T12:42:51.311Z,100138.22
2023-05-09T12:45:38.898Z,100121.66
2023-05-09T12:48:24.807Z,100133.69
2023-05-09T12:51:10.373Z,100101.81
2023-05-09T12:54:02.264Z,100105.97
2023-05-09T12:56:47.405Z,100099.78
2023-05-09T12:59:32.585Z,100107.78
2023-05-09T13:02:18.069Z,100114.72
2023-05-09T13:05:10.890Z,100082.84
2023-05-09T13:07:56.831Z,100087.91
2023-05-09T13:10:42.239Z,100110.88
2023-05-09T13:13:27.869Z,100114.47
2023-05-09T13:16:15.776Z,100105.63
2023-05-09T13:19:02.485Z,100109.94
2023-05-09T13:21:47.960Z,100088.63
2023-05-09T13:24:33.212Z,100073.81
2023-05-09T13:27:18.541Z,100091.63
2023-05-09T13:30:05.048Z,100093.78
2023-05-09T13:32:50.104Z,100092.38
2023-05-09T13:35:35.245Z,100155.59
2023-05-09T13:38:20.564Z,100252.22
2023-05-09T13:41:06.566Z,100273.97
2023-05-09T13:43:51.966Z,100294.22
2023-05-09T13:46:37.370Z,100312.59
2023-05-09T13:49:23.112Z,100320.03
2023-05-09T13:52:08.273Z,100315.50
2023-05-09T13:54:53.810Z,100315.97
2023-05-09T13:57:39.138Z,100304.28
2023-05-09T14:00:24.247Z,100289.09
2023-05-09T14:03:09.118Z,100280.06
2023-05-09T14:06:02.091Z,100262.72
2023-05-09T14:08:47.667Z,100257.81
2023-05-09T14:11:33.205Z,100254.50
2023-05-09T14:14:24.389Z,100250.88
2023-05-09T14:17:09.613Z,100225.91
2023-05-09T14:19:55.013Z,100238.44
2023-05-09T14:22:39.924Z,100231.81
2023-05-09T14:25:25.194Z,100206.72
2023-05-09T14:28:10.156Z,100225.22
2023-05-09T14:30:55.621Z,100221.06
2023-05-09T14:33:40.935Z,100234.91
2023-05-09T14:36:28.585Z,100205.00
2023-05-09T14:39:13.927Z,100201.19
2023-05-09T14:41:59.421Z,100199.81
2023-05-09T14:44:44.864Z,100192.81
2023-05-09T14:47:30.508Z,100202.00
2023-05-09T14:50:16.053Z,100207.09
2023-05-09T14:53:01.725Z,100205.38
2023-05-09T14:55:47.139Z,100187.25
2023-05-09T14:58:32.525Z,100159.09
2023-05-09T15:01:17.922Z,100142.25
2023-05-09T15:04:03.345Z,100139.53
2023-05-09T15:06:48.920Z,100120.59
2023-05-09T15:09:35.406Z,100121.00
2023-05-09T15:12:20.581Z,100121.47
2023-05-09T15:15:23.910Z,100114.56
2023-05-09T15:18:09.164Z,100129.06
2023-05-09T15:20:55.427Z,100097.59
2023-05-09T15:23:40.565Z,100070.16
2023-05-09T15:26:25.935Z,100079.94
2023-05-09T15:29:10.950Z,100046.13
2023-05-09T15:31:56.300Z,100047.88
2023-05-09T15:34:41.620Z,100049.50
2023-05-09T15:37:27.075Z,100013.78
2023-05-09T15:40:12.508Z,100017.97
2023-05-09T15:42:57.613Z,100003.31
2023-05-09T15:45:42.923Z,99995.41
2023-05-09T15:48:28.250Z,99994.38
2023-05-09T15:51:13.663Z,100005.88
2023-05-09T15:53:58.960Z,100003.19
2023-05-09T15:56:44.359Z,100011.88
2023-05-09T15:59:29.719Z,100003.09
2023-05-09T16:02:15.373Z,100010.09
2023-05-09T16:05:00.609Z,100006.72
2023-05-09T16:07:46.925Z,100009.53
2023-05-09T16:10:33.210Z,100008.22
2023-05-09T16:13:18.421Z,100032.97
2023-05-09T16:16:04.388Z,100057.16
2023-05-09T16:18:49.796Z,100084.31
2023-05-09T16:21:36.982Z,100105.72
2023-05-09T16:24:22.193Z,100118.88
2023-05-09T16:27:07.572Z,100117.31
2023-05-09T16:29:52.515Z,100118.06
2023-05-09T16:32:37.923Z,100124.34
2023-05-09T16:35:23.317Z,100124.31
2023-05-09T16:38:08.744Z,100114.88
2023-05-09T16:40:53.986Z,100114.84
2023-05-09T16:43:39.415Z,100110.47
2023-05-09T16:46:24.692Z,100106.84
2023-05-09T16:49:09.745Z,100109.59
2023-05-09T16:51:55.041Z,100117.78
2023-05-09T16:54:39.838Z,100130.25
2023-05-09T16:57:25.082Z,100146.97
2023-05-09T17:00:10.876Z,100140.03
2023-05-09T17:02:56.631Z,100136.50
2023-05-09T17:05:41.666Z,100140.94
2023-05-09T17:08:26.539Z,100137.78
2023-05-09T17:11:12.091Z,100142.44
2023-05-09T17:13:57.337Z,100164.94
2023-05-09T17:16:42.706Z,100170.44
2023-05-09T17:19:27.779Z,100169.47
2023-05-09T17:22:13.149Z,100157.88
2023-05-09T17:24:58.633Z,100158.72
2023-05-09T17:27:43.396Z,100153.31
2023-05-09T17:30:28.425Z,100156.06
2023-05-09T17:33:13.799Z,100139.09
2023-05-09T17:35:59.174Z,100132.91
2023-05-09T17:38:44.658Z,100140.66
2023-05-09T17:41:30.565Z,100140.75
2023-05-09T17:44:15.687Z,100134.66
2023-05-09T17:47:00.938Z,100144.25
2023-05-09T17:49:46.876Z,100138.25
2023-05-09T17:52:37.847Z,100145.69
2023-05-09T17:55:22.649Z,100147.56
2023-05-09T17:58:08.107Z,100151.06
2023-05-09T18:00:53.411Z,100145.84
2023-05-09T18:03:40.052Z,100141.47
2023-05-09T18:06:25.107Z,100137.00
2023-05-09T18:09:16.612Z,100138.03
2023-05-09T18:12:03.067Z,100129.38
2023-05-09T18:14:47.902Z,100134.56
2023-05-09T18:17:33.220Z,100123.03
2023-05-09T18:20:18.839Z,100122.88
2023-05-09T18:23:04.231Z,100115.72
2023-05-09T18:25:49.576Z,100114.13
2023-05-09T18:28:34.804Z,100114.94
2023-05-09T18:31:19.964Z,100114.88
2023-05-09T18:34:05.338Z,100122.75
2023-05-09T18:36:50.714Z,100125.44
2023-05-09T18:39:35.568Z,100128.91
2023-05-09T18:42:21.227Z,100128.78
2023-05-09T18:45:08.112Z,100130.72
2023-05-09T18:47:53.067Z,100135.16
2023-05-09T18:50:37.953Z,100141.06
2023-05-09T18:53:23.526Z,100148.72
2023-05-09T18:56:09.052Z,100148.56
2023-05-09T18:58:54.020Z,100150.63
2023-05-09T19:01:38.879Z,100151.44
2023-05-09T19:04:23.869Z,100152.41
2023-05-09T19:07:15.483Z,100149.25
2023-05-09T19:10:00.869Z,100146.66
2023-05-09T19:12:46.264Z,100145.09
2023-05-09T19:15:31.364Z,100152.19
2023-05-09T19:18:16.231Z,100153.94
2023-05-09T19:21:01.289Z,100147.81
2023-05-09T19:23:46.643Z,100160.00
2023-05-09T19:26:32.054Z,100154.03
2023-05-09T19:29:17.333Z,100151.38
2023-05-09T19:32:02.704Z,100149.00
2023-05-09T19:34:48.188Z,100148.28
2023-05-09T19:37:33.140Z,100143.13
2023-05-09T19:40:18.087Z,100144.91
2023-05-09T19:43:03.607Z,100143.22
2023-05-09T19:45:48.828Z,100145.94
2023-05-09T19:48:34.076Z,100148.59
2023-05-09T19:51:19.093Z,100144.19
2023-05-09T19:54:04.761Z,100146.75
2023-05-09T19:56:50.010Z,100138.03
2023-05-09T19:59:34.944Z,100144.19
2023-05-09T20:02:19.936Z,100142.81
2023-05-09T20:05:05.709Z,100140.31
2023-05-09T20:07:51.072Z,100143.69
2023-05-09T20:10:36.493Z,100145.41
2023-05-09T20:13:21.475Z,100145.31
2023-05-09T20:16:06.813Z,100141.91
2023-05-09T20:18:52.224Z,100145.41
2023-05-09T20:21:37.603Z,100144.47
2023-05-09T20:24:23.020Z,100147.13
2023-05-09T20:27:08.430Z,100141.88
2023-05-09T20:29:53.841Z,100134.16
2023-05-09T20:32:39.352Z,100134.78
2023-05-09T20:35:24.871Z,100127.13
2023-05-09T20:38:10.915Z,100130.56
2023-05-09T20:40:55.934Z,100128.81
2023-05-09T20:43:41.393Z,100129.66
2023-05-09T20:46:26.694Z,100121.84
2023-05-09T20:49:11.899Z,100126.31
2023-05-09T20:51:57.127Z,100129.88
2023-05-09T20:54:42.480Z,100123.78
2023-05-09T20:57:27.531Z,100111.81
2023-05-09T21:00:13.483Z,100115.97
2023-05-09T21:02:59.006Z,100120.31
2023-05-09T21:05:44.096Z,100102.22
2023-05-09T21:08:28.992Z,100115.81
2023-05-09T21:11:13.861Z,100099.44
2023-05-09T21:13:59.297Z,100105.84
2023-05-09T21:16:44.715Z,100107.44
2023-05-09T21:19:29.944Z,100110.78
2023-05-09T21:22:15.445Z,100106.34
2023-05-09T21:25:00.300Z,100102.09
2023-05-09T21:27:45.799Z,100099.56
2023-05-09T21:30:30.801Z,100093.72
2023-05-09T21:33:15.929Z,100095.47
2023-05-09T21:36:01.431Z,100092.75
2023-05-09T21:38:46.564Z,100093.66
2023-05-09T21:41:32.270Z,100090.22
2023-05-09T21:44:17.361Z,100085.09
2023-05-09T21:47:02.652Z,100097.09
2023-05-09T21:49:47.815Z,100088.47
2023-05-09T21:52:33.209Z,100084.09
2023-05-09T21:55:18.725Z,100085.06
2023-05-09T21:58:04.048Z,100085.97
2023-05-09T22:00:49.556Z,100066.97
2023-05-09T22:03:35.188Z,100079.75
2023-05-09T22:06:20.154Z,100073.56
2023-05-09T22:09:05.557Z,100092.06
2023-05-09T22:11:52.050Z,100080.00
2023-05-09T22:14:45.344Z,100080.03
2023-05-09T22:17:40.800Z,100081.50
2023-05-09T22:20:26.300Z,100071.31
2023-05-09T22:23:11.988Z,100075.56
2023-05-09T22:25:58.170Z,100082.44
2023-05-09T22:28:43.277Z,100085.03
2023-05-09T22:31:28.820Z,100080.72
2023-05-09T22:34:14.064Z,100076.50
2023-05-09T22:36:59.566Z,100081.81
2023-05-09T22:39:44.866Z,100071.31
2023-05-09T22:42:30.409Z,100072.94
2023-05-09T22:45:15.655Z,100065.09
2023-05-09T22:48:00.913Z,100056.53
2023-05-09T22:50:46.528Z,100059.13
2023-05-09T22:53:31.799Z,100053.97
2023-05-09T22:56:17.184Z,100071.09
2023-05-09T22:59:02.081Z,100058.31
2023-05-09T23:01:47.395Z,100053.97
2023-05-09T23:04:32.734Z,100062.78
2023-05-09T23:07:17.601Z,100056.50
2023-05-09T23:10:03.574Z,100057.56
2023-05-09T23:12:48.598Z,100048.75
2023-05-09T23:15:33.589Z,100045.25
2023-05-09T23:18:19.018Z,100046.91
2023-05-09T23:21:05.161Z,100051.41
2023-05-09T23:23:50.427Z,100045.47
2023-05-09T23:26:35.465Z,100038.44
2023-05-09T23:29:20.741Z,100041.00
2023-05-09T23:32:05.452Z,100032.38
2023-05-09T23:34:50.807Z,100033.25
2023-05-09T23:37:36.090Z,100026.31
2023-05-09T23:40:21.288Z,100033.28
2023-05-09T23:43:06.690Z,100025.53
2023-05-09T23:45:52.138Z,100017.63
2023-05-09T23:48:37.574Z,100017.72
2023-05-09T23:51:23.333Z,100024.63
2023-05-09T23:54:08.670Z,100022.09
2023-05-09T23:56:53.577Z,100021.13
2023-05-09T23:59:38.497Z,100007.34
